Hlavní strana
METAR-TAF:

METAR-TAF

Letiště :

Kirkenes, Norsko

zeměpisná šířka: 69-44N, zeměpisná délka: 029-54E, výška: 9 m

Aktuální stav počasí

Zpráva byla vytvořena před 16 minutami, v 21:20 UTC
Jihojihovýchodní vítr 10 kt
Teplota -14°C
Vlhkost vzduchu 85%
Tlak 1021 hPa
Viditelnost 10 km a více
Skoro jasno ve výšce 2000 ft

METAR: ENKR 122120Z 15010KT 9999 FEW020 M14/M16 Q1021 RMK WIND 731FT 17017KT

Čas: 22:36 (21:36 UTC)

Předpověď počasí

Zpráva byla vytvořena před 1 hodinou a 36 minutami, v 20:00 UTC
Předpověď platná od 12 v 21 UTC do 13 v 06 UTC
Jihojihovýchodní vítr 8 kt
Viditelnost 10 km a více
Skoro jasno ve výšce 1000 ft
Pravděpodobnost 40%
od 12 v 21 UTC do 13 v 03 UTC
Viditelnost: 0300 m
ve výšce 100 ft
mrznoucí mlha

TAF: ENKR 122000Z 1221/1306 16008KT 9999 FEW010 PROB40 1221/1303 0300 FZFG VV001

Stav a předpovědi počasí z více než 4 000 letišť (zprávy METAR a TAF).

Červené a žluté tečky na mapě představují dostupné meteorologické stanice.

Když kurzor umístíte na tečku, zobrazí se název stanice.

Pak kliknutím zobrazíte stav a předpověď počasí.

Chcete-li změnit mapu, kliknutím na zelené tlačítko se znaménkem +mapu přiblížíte, kliknutím na zelené tlačítko se znaménkem – mapu oddálíte a kliknutím na zelené šipky přejdete na sousední mapy.


METAR-TAF: